Terminal Aerodrome Forecast
Issued by NWS

Home | Current Version | Previous Version | Text Only | Print | Product List | Glossary On
Versions: 1 2 3 4 5 6 7 8 9 10 11 12 13 14 15 16
000
FTUS43 KDTX 182300
TAFDET
TAF
KDET 182324Z 1900/1924 06009KT P6SM SCT030 SCT040
      TEMPO 1900/1902 SCT030 BKN040
     FM190400 04003KT P6SM SCT035
     FM191500 14007KT P6SM SKC=

USA.gov is the U.S. government's official web portal to all federal, state and local government web resources and services.